メインページ
METAR-TAF:

METAR-TAF

空港 :

ヌアクショット, モーリタニア

ヌアクショット空港

緯度: 18-18-36N, 経度: 015-58-11W, 海抜: 3m

現時点の気象観測

当レポートは35分前の04:30(UTC)に作成
北東の風 9kt
気温 25°C
湿度 41%
気圧 1012 hPa
視程: 8000m

METAR: GQNO 210430Z 04009KT 8000 NSC 25/11 Q1012 NOSIG

時間: 05:05 (05:05 UTC)

予報

当レポートは6時間5分前の23:00(UTC)に作成
予報は21日の 00時(UTC)から 22日の 06時(UTC)まで有効
北/北西の風 12kt
視程: 8000m
20日の 09時(UTC)から 20日の 16時(UTC)まで一時的に
の風 12kt
確率 30% :
21日の 09時(UTC)から 21日の 15時(UTC)まで一時的に
視程: 4000m
風塵

TAF: GQNO 202300Z 2100/2206 34012KT 8000 NSC TEMPO 2009/2016 08012KT PROB30 TEMPO 2109/2115 4000 BLDU

4,000以上の空港の気象観測と天気予報(METAR報とTAF報)

利用可能な観測所は地図上に黄色い丸と赤い丸で示す。

丸の上にカーソルを重ねると観測所名を参照できる。

次にクリックすると気象観測と天気予報を参照できる。

マップの切り替え:黒色「×」印の緑ボタンをクリックして拡大、「-」印の緑ボタンをクリックして縮小、緑色の三角印をクリックして隣りの地図に切り替え


METAR-TAF: